Time;durP1;ratioP1;P1;durP2;ratioP2;P2;SDS_P1;SDS_P2;PMS_P1;PMS_P2;Temp;Humidity;BMP_temperature;BMP_pressure;BME280_temperature;BME280_humidity;BME280_pressure;Samples;Min_cycle;Max_cycle;Signal;HPM_P1;HPM_P2
2022/03/06 00:01:22;;;;;;;3.95;3.25;;;14.00;32.40;;;;;;5150001;27;47161;-14
2022/03/06 00:03:48;;;;;;;4.43;3.00;;;14.00;32.40;;;;;;5149451;27;47092;-20
2022/03/06 00:06:16;;;;;;;3.45;3.05;;;14.00;32.50;;;;;;5149400;27;46838;-20
2022/03/06 00:08:44;;;;;;;4.25;2.97;;;14.00;32.50;;;;;;5149473;27;47283;-20
2022/03/06 00:11:11;;;;;;;3.47;2.78;;;14.00;32.50;;;;;;5149512;27;48242;-14
2022/03/06 00:13:37;;;;;;;4.15;2.90;;;14.00;32.50;;;;;;5149528;27;46957;-20
2022/03/06 00:16:04;;;;;;;3.35;2.67;;;14.10;32.40;;;;;;5149532;27;46904;-21
2022/03/06 00:18:31;;;;;;;3.83;3.00;;;14.20;32.10;;;;;;5149972;27;47339;-14
2022/03/06 00:20:59;;;;;;;3.88;3.47;;;14.30;32.50;;;;;;5149093;27;47031;-14
2022/03/06 00:23:26;;;;;;;3.65;3.25;;;14.40;31.70;;;;;;5149112;27;47398;-14
2022/03/06 00:25:54;;;;;;;4.95;3.47;;;14.50;31.50;;;;;;5149322;27;46976;-14
2022/03/06 00:28:20;;;;;;;4.05;3.40;;;14.60;31.40;;;;;;5149667;27;46898;-14
2022/03/06 00:30:47;;;;;;;4.55;3.55;;;14.60;31.20;;;;;;5148973;27;48779;-14
2022/03/06 00:33:14;;;;;;;3.63;3.25;;;14.60;31.10;;;;;;5148863;27;46897;-14
2022/03/06 00:35:41;;;;;;;3.65;3.25;;;14.70;31.10;;;;;;5148836;27;46891;-20
2022/03/06 00:38:08;;;;;;;4.60;3.25;;;14.70;31.10;;;;;;5149303;27;47314;-20
2022/03/06 00:40:34;;;;;;;4.95;3.72;;;14.70;31.00;;;;;;5149050;27;47158;-20
2022/03/06 00:43:02;;;;;;;3.58;3.25;;;14.70;30.90;;;;;;5148945;27;47423;-20
2022/03/06 00:45:29;;;;;;;5.32;3.65;;;14.80;31.00;;;;;;5148717;27;46978;-14
2022/03/06 00:47:56;;;;;;;4.35;3.35;;;14.80;30.90;;;;;;5149103;27;46941;-14
2022/03/06 00:50:23;;;;;;;3.95;3.55;;;14.80;30.90;;;;;;5148639;27;46956;-14
2022/03/06 00:52:52;;;;;;;4.45;3.15;;;14.70;30.90;;;;;;5148826;27;46821;-20
2022/03/06 00:55:19;;;;;;;4.25;3.85;;;14.70;30.90;;;;;;5148883;27;46812;-20
2022/03/06 00:57:46;;;;;;;3.97;3.50;;;14.70;30.90;;;;;;5149153;27;46902;-20
2022/03/06 01:00:15;;;;;;;4.03;3.63;;;14.70;30.90;;;;;;5148523;27;49189;-20
2022/03/06 01:02:41;;;;;;;5.88;3.78;;;14.70;31.00;;;;;;5148486;27;46860;-21
2022/03/06 01:05:09;;;;;;;4.22;3.65;;;14.60;30.90;;;;;;5148603;27;47489;-21
2022/03/06 01:07:36;;;;;;;3.55;3.17;;;14.60;30.90;;;;;;5148922;27;46903;-21
2022/03/06 01:10:03;;;;;;;3.75;3.33;;;14.60;31.00;;;;;;5148079;27;46925;-20
2022/03/06 01:12:30;;;;;;;4.00;3.15;;;14.60;31.00;;;;;;5148481;27;46891;-20
2022/03/06 01:14:57;;;;;;;3.33;3.03;;;14.60;31.00;;;;;;5148424;27;47026;-14
2022/03/06 01:17:25;;;;;;;3.65;3.10;;;14.60;31.00;;;;;;5148965;27;46883;-20
2022/03/06 01:19:51;;;;;;;3.88;3.08;;;14.60;31.10;;;;;;5148295;27;48241;-20
2022/03/06 01:22:18;;;;;;;4.20;3.65;;;14.50;31.10;;;;;;5148432;27;47227;-20
2022/03/06 01:24:45;;;;;;;4.03;3.10;;;14.50;31.10;;;;;;5148335;27;46848;-20
2022/03/06 01:27:11;;;;;;;3.63;3.17;;;14.50;31.10;;;;;;5148633;27;47272;-21
2022/03/06 01:29:38;;;;;;;4.28;3.40;;;14.50;31.20;;;;;;5147887;27;47968;-20
2022/03/06 01:32:05;;;;;;;4.53;3.50;;;14.40;31.10;;;;;;5148326;27;46936;-14
2022/03/06 01:34:33;;;;;;;3.90;3.30;;;14.40;31.10;;;;;;5148216;27;46970;-14
2022/03/06 01:37:00;;;;;;;3.42;3.13;;;14.40;31.20;;;;;;5148222;27;47160;-20
2022/03/06 01:39:27;;;;;;;3.13;2.80;;;14.40;31.30;;;;;;5147959;27;47863;-21
2022/03/06 01:41:53;;;;;;;4.50;3.30;;;14.40;31.30;;;;;;5148081;27;47429;-21
2022/03/06 01:44:20;;;;;;;4.22;3.30;;;14.30;31.30;;;;;;5147871;27;46998;-20
2022/03/06 01:46:47;;;;;;;3.63;3.28;;;14.30;31.30;;;;;;5148002;27;46906;-21
2022/03/06 01:49:14;;;;;;;4.35;3.35;;;14.30;31.30;;;;;;5147989;27;48140;-21
2022/03/06 01:51:42;;;;;;;3.70;3.38;;;14.30;31.40;;;;;;5148059;27;47470;-20
2022/03/06 01:54:08;;;;;;;3.88;3.47;;;14.30;31.40;;;;;;5148077;27;46896;-14
2022/03/06 01:56:35;;;;;;;3.92;3.53;;;14.20;31.30;;;;;;5148155;27;46918;-14
2022/03/06 01:59:02;;;;;;;4.20;3.50;;;14.20;31.40;;;;;;5147567;27;48853;-14
2022/03/06 02:01:29;;;;;;;3.70;2.92;;;14.20;31.40;;;;;;5146808;27;46951;-14
2022/03/06 02:03:56;;;;;;;3.47;2.90;;;14.20;31.50;;;;;;5147791;27;46916;-14
2022/03/06 02:06:22;;;;;;;4.50;3.67;;;14.20;31.50;;;;;;5148067;27;46843;-21
2022/03/06 02:08:51;;;;;;;3.78;3.20;;;14.20;31.40;;;;;;5147601;27;47068;-21
2022/03/06 02:11:17;;;;;;;4.63;3.65;;;14.40;31.30;;;;;;5147656;27;46886;-20
2022/03/06 02:13:44;;;;;;;4.40;3.20;;;14.50;31.10;;;;;;5147546;27;47024;-20
2022/03/06 02:16:11;;;;;;;3.83;3.22;;;14.60;30.90;;;;;;5147579;27;47161;-21
2022/03/06 02:18:37;;;;;;;3.97;3.38;;;14.70;30.80;;;;;;5147255;27;48146;-21
2022/03/06 02:21:09;;;;;;;5.28;3.25;;;14.80;30.70;;;;;;5147667;27;46867;-15
2022/03/06 02:23:36;;;;;;;3.92;3.55;;;14.80;30.50;;;;;;5147536;27;46904;-14
2022/03/06 02:26:02;;;;;;;6.15;3.67;;;14.80;30.50;;;;;;5147363;27;46925;-14
2022/03/06 02:28:29;;;;;;;4.47;3.35;;;14.80;30.40;;;;;;5147100;27;47985;-15
2022/03/06 02:30:56;;;;;;;4.88;3.55;;;14.90;30.40;;;;;;5147165;27;46868;-14
2022/03/06 02:33:22;;;;;;;4.40;3.47;;;14.90;30.40;;;;;;5147103;27;46836;-14
2022/03/06 02:35:49;;;;;;;5.18;3.90;;;14.90;30.40;;;;;;5147798;27;46878;-14
2022/03/06 02:38:18;;;;;;;4.00;3.47;;;14.80;30.30;;;;;;5147226;27;48115;-15
2022/03/06 02:40:45;;;;;;;4.57;3.30;;;14.80;30.30;;;;;;5146896;27;46916;-14
2022/03/06 02:43:13;;;;;;;4.25;3.47;;;14.90;30.40;;;;;;5147088;27;46802;-14
2022/03/06 02:45:40;;;;;;;5.05;3.85;;;14.80;30.30;;;;;;5147427;27;47098;-20
2022/03/06 02:48:07;;;;;;;4.38;3.70;;;14.80;30.40;;;;;;5146870;27;47907;-20
2022/03/06 02:50:35;;;;;;;4.75;3.50;;;14.80;30.40;;;;;;5147276;27;46891;-20
2022/03/06 02:53:03;;;;;;;3.78;3.35;;;14.80;30.40;;;;;;5147293;27;46948;-20
2022/03/06 02:55:31;;;;;;;4.32;3.53;;;14.70;30.40;;;;;;5147130;27;47122;-20
2022/03/06 02:57:58;;;;;;;5.50;3.60;;;14.70;30.40;;;;;;5147271;27;47942;-20
2022/03/06 03:00:25;;;;;;;4.07;3.67;;;14.70;30.40;;;;;;5147101;27;46805;-20
2022/03/06 03:02:52;;;;;;;4.78;3.85;;;14.70;30.50;;;;;;5147138;27;46833;-21
2022/03/06 03:05:19;;;;;;;5.28;3.90;;;14.70;30.50;;;;;;5147006;27;47288;-20
2022/03/06 03:07:48;;;;;;;4.93;3.63;;;14.60;30.50;;;;;;5146991;27;48444;-20
2022/03/06 03:10:16;;;;;;;4.97;4.10;;;14.60;30.50;;;;;;5146096;27;46897;-20
2022/03/06 03:12:44;;;;;;;5.25;3.85;;;14.60;30.60;;;;;;5148392;27;46883;-20
2022/03/06 03:15:11;;;;;;;3.92;3.47;;;14.50;30.60;;;;;;5150518;27;46989;-14
2022/03/06 03:17:38;;;;;;;5.55;4.20;;;14.50;30.60;;;;;;5150153;27;47913;-20
2022/03/06 03:20:06;;;;;;;5.18;3.80;;;14.50;30.60;;;;;;5150368;27;46818;-20
2022/03/06 03:22:33;;;;;;;5.63;3.85;;;14.50;30.70;;;;;;5150275;27;47055;-20
2022/03/06 03:24:59;;;;;;;6.60;3.78;;;14.40;30.70;;;;;;5150476;27;46913;-20
2022/03/06 03:27:26;;;;;;;4.43;3.65;;;14.40;30.70;;;;;;5150011;27;47078;-20
2022/03/06 03:29:54;;;;;;;4.65;3.72;;;14.40;30.80;;;;;;5150121;27;47430;-14
2022/03/06 03:32:21;;;;;;;5.25;4.03;;;14.40;30.80;;;;;;5150285;27;46876;-20
2022/03/06 03:34:47;;;;;;;4.20;3.67;;;14.30;30.80;;;;;;5149798;27;46866;-20
2022/03/06 03:37:14;;;;;;;6.07;4.40;;;14.30;30.90;;;;;;5150207;27;48045;-20
2022/03/06 03:39:41;;;;;;;5.82;4.45;;;14.30;30.90;;;;;;5149924;27;46993;-20
2022/03/06 03:42:07;;;;;;;5.00;3.97;;;14.20;30.90;;;;;;5149817;27;46810;-20
2022/03/06 03:44:34;;;;;;;5.38;4.07;;;14.20;31.00;;;;;;5150015;27;46906;-20
2022/03/06 03:47:02;;;;;;;4.30;3.78;;;14.20;31.00;;;;;;5149702;27;47751;-20
2022/03/06 03:49:29;;;;;;;4.85;3.90;;;14.20;31.00;;;;;;5150045;27;46923;-20
2022/03/06 03:51:56;;;;;;;4.45;3.83;;;14.10;31.10;;;;;;5150034;27;46875;-14
2022/03/06 03:54:22;;;;;;;4.15;3.70;;;14.10;31.10;;;;;;5149858;27;47066;-14
2022/03/06 03:56:49;;;;;;;5.35;4.13;;;14.10;31.10;;;;;;5149573;27;47863;-14
2022/03/06 03:59:16;;;;;;;5.20;4.07;;;14.10;31.10;;;;;;5149647;27;46994;-14
2022/03/06 04:01:42;;;;;;;5.10;4.03;;;14.00;31.10;;;;;;5149978;27;46808;-15
2022/03/06 04:04:10;;;;;;;5.53;4.00;;;14.00;31.10;;;;;;5149987;27;46833;-14
2022/03/06 04:06:37;;;;;;;4.93;4.23;;;14.00;31.20;;;;;;5149744;27;47512;-14
2022/03/06 04:09:04;;;;;;;5.35;3.95;;;14.00;31.20;;;;;;5149234;27;46833;-14
2022/03/06 04:11:31;;;;;;;4.20;3.80;;;13.90;31.20;;;;;;5150034;27;47026;-14
2022/03/06 04:13:59;;;;;;;5.23;4.23;;;13.90;31.30;;;;;;5149416;27;46878;-14
2022/03/06 04:16:25;;;;;;;5.72;3.95;;;13.90;31.30;;;;;;5149481;27;49060;-14
2022/03/06 04:18:52;;;;;;;5.93;4.40;;;13.90;31.30;;;;;;5149234;27;47075;-15
2022/03/06 04:21:20;;;;;;;4.60;3.93;;;13.90;31.40;;;;;;5149232;27;46891;-14
2022/03/06 04:23:47;;;;;;;5.10;4.20;;;13.90;31.40;;;;;;5148720;27;47191;-14
2022/03/06 04:26:14;;;;;;;4.37;3.97;;;13.80;31.30;;;;;;5149295;27;48061;-14
2022/03/06 04:28:40;;;;;;;6.17;4.67;;;13.80;31.50;;;;;;5149314;27;46952;-20
2022/03/06 04:31:07;;;;;;;5.40;4.20;;;13.80;31.50;;;;;;5149108;27;46858;-21
2022/03/06 04:33:34;;;;;;;4.50;4.10;;;13.80;31.50;;;;;;5149587;27;47319;-21
2022/03/06 04:36:00;;;;;;;4.53;3.97;;;13.80;31.60;;;;;;5148979;27;46829;-21
2022/03/06 04:38:28;;;;;;;5.00;3.80;;;13.70;31.50;;;;;;5148837;27;46804;-14
2022/03/06 04:40:55;;;;;;;5.72;4.15;;;13.70;31.50;;;;;;5149110;27;46878;-20
2022/03/06 04:43:24;;;;;;;5.28;4.03;;;13.70;31.50;;;;;;5149150;27;47308;-21
2022/03/06 04:45:50;;;;;;;5.37;4.03;;;13.70;31.60;;;;;;5148572;27;49052;-20
2022/03/06 04:48:17;;;;;;;6.10;4.60;;;13.60;31.60;;;;;;5149055;27;46874;-21
2022/03/06 04:50:44;;;;;;;6.23;4.47;;;13.60;31.60;;;;;;5148792;27;46793;-14
2022/03/06 04:53:10;;;;;;;4.90;4.37;;;13.60;31.60;;;;;;5149215;27;46994;-14
2022/03/06 04:55:38;;;;;;;6.40;4.38;;;13.60;31.60;;;;;;5148245;27;47878;-21
2022/03/06 04:58:05;;;;;;;5.20;4.63;;;13.50;31.60;;;;;;5148867;27;46730;-14
2022/03/06 05:00:32;;;;;;;6.07;4.30;;;13.50;31.70;;;;;;5148730;27;46967;-19
2022/03/06 05:02:59;;;;;;;5.90;4.07;;;13.50;31.70;;;;;;5148721;27;46892;-21
2022/03/06 05:05:26;;;;;;;5.30;4.00;;;13.50;31.70;;;;;;5148312;27;48944;-14
2022/03/06 05:07:53;;;;;;;5.70;4.57;;;13.50;31.70;;;;;;5148788;27;46979;-14
2022/03/06 05:10:19;;;;;;;6.03;4.07;;;13.40;31.70;;;;;;5148151;27;46827;-14
2022/03/06 05:12:47;;;;;;;4.73;4.20;;;13.40;31.70;;;;;;5148616;27;47270;-14
2022/03/06 05:15:14;;;;;;;5.20;4.30;;;13.40;31.80;;;;;;5148430;27;47086;-14
2022/03/06 05:17:41;;;;;;;6.50;4.47;;;13.50;31.80;;;;;;5148569;27;47021;-20
2022/03/06 05:20:08;;;;;;;5.67;4.27;;;13.60;31.60;;;;;;5148330;27;47027;-14
2022/03/06 05:22:35;;;;;;;4.97;3.83;;;13.70;31.50;;;;;;5148772;27;46946;-14
2022/03/06 05:25:02;;;;;;;7.30;4.33;;;13.80;31.30;;;;;;5148132;27;49195;-14
2022/03/06 05:27:28;;;;;;;5.43;4.53;;;13.90;31.10;;;;;;5148110;27;46883;-14
2022/03/06 05:29:56;;;;;;;6.33;4.37;;;14.00;30.90;;;;;;5148068;27;46838;-15
2022/03/06 05:32:23;;;;;;;4.50;3.83;;;14.10;30.70;;;;;;5148328;27;46929;-14
2022/03/06 05:34:50;;;;;;;4.82;3.88;;;14.20;30.60;;;;;;5146965;27;48193;-14
2022/03/06 05:37:17;;;;;;;5.17;4.20;;;14.20;30.50;;;;;;5148197;27;46893;-14
2022/03/06 05:39:43;;;;;;;4.87;4.17;;;14.30;30.40;;;;;;5148071;27;46818;-14
2022/03/06 05:42:10;;;;;;;5.60;3.83;;;14.30;30.40;;;;;;5147881;27;46877;-14
2022/03/06 05:44:37;;;;;;;5.80;4.63;;;14.30;30.30;;;;;;5148011;27;48141;-14
2022/03/06 05:47:05;;;;;;;4.57;3.97;;;14.30;30.30;;;;;;5148076;27;47407;-14
2022/03/06 05:49:32;;;;;;;5.30;4.03;;;14.30;30.30;;;;;;5147841;27;46877;-14
2022/03/06 05:51:59;;;;;;;4.57;4.17;;;14.30;30.30;;;;;;5148371;27;46922;-15
2022/03/06 05:54:25;;;;;;;4.85;4.03;;;14.30;30.30;;;;;;5147490;27;49014;-14
2022/03/06 05:56:52;;;;;;;5.17;4.37;;;14.30;30.30;;;;;;5147961;27;46895;-15
2022/03/06 05:59:19;;;;;;;5.78;4.00;;;14.30;30.30;;;;;;5147908;27;46880;-15
2022/03/06 06:01:45;;;;;;;4.53;3.80;;;14.30;30.30;;;;;;5147850;27;47056;-14
2022/03/06 06:04:13;;;;;;;5.53;4.43;;;14.20;30.30;;;;;;5147494;27;48868;-14
2022/03/06 06:06:40;;;;;;;5.80;4.07;;;14.20;30.30;;;;;;5147799;27;46896;-20
2022/03/06 06:09:07;;;;;;;6.20;4.28;;;14.20;30.40;;;;;;5147527;27;46872;-15
2022/03/06 06:11:34;;;;;;;5.80;3.97;;;14.20;30.40;;;;;;5148099;27;46982;-14
2022/03/06 06:14:00;;;;;;;6.47;4.57;;;14.20;30.40;;;;;;5147190;27;48778;-14
2022/03/06 06:16:27;;;;;;;6.47;4.50;;;14.10;30.40;;;;;;5147336;27;46860;-20
2022/03/06 06:18:54;;;;;;;5.18;3.75;;;14.10;30.50;;;;;;5147397;27;47050;-14
2022/03/06 06:21:22;;;;;;;5.65;4.40;;;14.10;30.50;;;;;;5147846;27;46828;-14
2022/03/06 06:23:48;;;;;;;5.03;3.67;;;14.00;30.40;;;;;;5147471;27;49041;-14
2022/03/06 06:26:15;;;;;;;5.97;4.03;;;14.00;30.50;;;;;;5147283;27;46895;-21
2022/03/06 06:28:42;;;;;;;4.83;4.03;;;14.00;30.60;;;;;;5147483;27;46805;-21
2022/03/06 06:31:09;;;;;;;5.20;4.10;;;14.00;30.70;;;;;;5147571;27;47351;-14
2022/03/06 06:33:35;;;;;;;5.43;4.20;;;13.90;30.60;;;;;;5147169;27;47084;-14
2022/03/06 06:36:02;;;;;;;5.55;4.20;;;13.90;30.70;;;;;;5147260;27;47251;-20
2022/03/06 06:38:30;;;;;;;5.73;4.00;;;13.90;30.80;;;;;;5147431;27;46915;-14
2022/03/06 06:40:57;;;;;;;4.83;4.33;;;13.80;30.70;;;;;;5147281;27;47286;-14
2022/03/06 06:43:24;;;;;;;5.17;4.20;;;13.80;30.80;;;;;;5147116;27;48538;-20
2022/03/06 06:45:50;;;;;;;5.57;4.33;;;13.80;30.90;;;;;;5147165;27;47176;-20
2022/03/06 06:48:17;;;;;;;6.17;4.37;;;13.80;30.90;;;;;;5151067;27;46897;-20
2022/03/06 06:50:44;;;;;;;5.10;4.10;;;13.80;30.90;;;;;;5151059;27;47293;-14
2022/03/06 06:53:10;;;;;;;6.07;4.30;;;13.70;30.90;;;;;;5150841;27;47877;-20
2022/03/06 06:55:38;;;;;;;5.20;4.40;;;13.70;31.00;;;;;;5150561;27;47456;-21
2022/03/06 06:58:05;;;;;;;5.23;4.07;;;13.70;31.00;;;;;;5150888;27;46841;-21
2022/03/06 07:00:32;;;;;;;5.20;4.20;;;13.70;31.10;;;;;;5150579;27;47138;-21
2022/03/06 07:02:59;;;;;;;4.70;4.20;;;13.60;31.00;;;;;;5150814;27;47916;-20
2022/03/06 07:05:25;;;;;;;5.63;4.37;;;13.60;31.10;;;;;;5150399;27;46920;-21
2022/03/06 07:07:53;;;;;;;5.90;4.50;;;13.60;31.10;;;;;;5150823;27;46725;-14
2022/03/06 07:10:19;;;;;;;5.23;4.10;;;13.60;31.10;;;;;;5150260;27;46872;-14
2022/03/06 07:12:53;;;;;;;5.63;4.50;;;13.60;31.10;;;;;;5150276;27;47873;-20
2022/03/06 07:15:19;;;;;;;5.60;4.20;;;13.60;31.20;;;;;;5150640;27;46938;-16
2022/03/06 07:17:46;;;;;;;4.80;4.27;;;13.60;31.20;;;;;;5150241;27;46844;-14
2022/03/06 07:20:13;;;;;;;5.17;3.93;;;13.60;31.30;;;;;;5150402;27;46814;-14
2022/03/06 07:22:40;;;;;;;5.67;4.43;;;13.50;31.20;;;;;;5150435;27;47790;-14
2022/03/06 07:25:07;;;;;;;4.90;4.30;;;13.50;31.30;;;;;;5149981;27;47440;-14
2022/03/06 07:27:34;;;;;;;5.40;4.50;;;13.50;31.30;;;;;;5150159;27;46850;-20
2022/03/06 07:30:02;;;;;;;5.93;4.50;;;13.50;31.30;;;;;;5150282;27;47195;-20
2022/03/06 07:32:29;;;;;;;4.80;4.27;;;13.50;31.30;;;;;;5150340;27;46927;-13
2022/03/06 07:34:55;;;;;;;8.57;5.00;;;13.50;31.30;;;;;;5150163;27;47270;-20
2022/03/06 07:37:22;;;;;;;6.27;4.50;;;13.50;31.50;;;;;;5150299;27;47030;-20
2022/03/06 07:39:49;;;;;;;6.13;4.60;;;13.50;31.50;;;;;;5150348;27;46874;-14
2022/03/06 07:42:16;;;;;;;5.33;4.20;;;13.50;31.40;;;;;;5149826;27;47252;-14
2022/03/06 07:44:43;;;;;;;5.37;4.37;;;13.50;31.40;;;;;;5149878;27;47078;-14
2022/03/06 07:47:11;;;;;;;6.33;4.83;;;13.50;31.50;;;;;;5150124;27;47081;-20
2022/03/06 07:49:38;;;;;;;6.10;4.43;;;13.50;31.50;;;;;;5150035;27;47269;-14
2022/03/06 07:52:05;;;;;;;5.20;3.93;;;13.60;31.40;;;;;;5149993;27;48126;-14
2022/03/06 07:54:32;;;;;;;7.07;5.23;;;13.70;31.30;;;;;;5149441;27;46889;-20
2022/03/06 07:56:59;;;;;;;4.60;4.17;;;13.80;31.30;;;;;;5149907;27;46918;-14
2022/03/06 07:59:25;;;;;;;5.67;4.33;;;13.80;31.10;;;;;;5149048;27;46926;-21
2022/03/06 08:01:53;;;;;;;5.67;4.70;;;13.90;31.00;;;;;;5149764;27;48228;-20
2022/03/06 08:04:21;;;;;;;5.10;4.60;;;14.00;30.90;;;;;;5149610;27;46924;-15
2022/03/06 08:06:48;;;;;;;5.27;4.47;;;14.00;30.80;;;;;;5149517;27;47017;-15
2022/03/06 08:09:14;;;;;;;5.47;4.30;;;14.00;30.80;;;;;;5149441;27;46926;-14
2022/03/06 08:11:41;;;;;;;7.40;4.33;;;14.10;30.80;;;;;;5149499;27;48143;-19
2022/03/06 08:14:08;;;;;;;7.00;4.30;;;14.10;30.70;;;;;;5149324;27;47396;-20
2022/03/06 08:16:35;;;;;;;5.60;4.30;;;14.10;30.80;;;;;;5150055;27;47017;-14
2022/03/06 08:19:01;;;;;;;5.97;5.07;;;14.10;30.70;;;;;;5149288;27;46883;-14
2022/03/06 08:21:29;;;;;;;6.28;4.40;;;14.10;30.70;;;;;;5149679;27;49054;-15
2022/03/06 08:23:56;;;;;;;5.83;4.73;;;14.10;30.70;;;;;;5149483;27;46978;-14
2022/03/06 08:26:23;;;;;;;5.63;4.43;;;14.10;30.80;;;;;;5149462;27;46907;-15
2022/03/06 08:28:50;;;;;;;5.77;4.63;;;14.10;30.80;;;;;;5149743;27;46895;-14
2022/03/06 08:31:17;;;;;;;5.47;4.13;;;14.10;30.80;;;;;;5149343;27;47839;-14
2022/03/06 08:33:44;;;;;;;6.43;4.47;;;14.10;30.80;;;;;;5149285;27;46998;-20
2022/03/06 08:36:10;;;;;;;4.87;4.20;;;14.10;30.80;;;;;;5149301;27;47019;-20
2022/03/06 08:38:38;;;;;;;5.40;4.30;;;14.10;30.90;;;;;;5149441;27;46940;-14
2022/03/06 08:41:05;;;;;;;5.43;4.10;;;14.10;30.90;;;;;;5148854;27;47943;-20
2022/03/06 08:43:32;;;;;;;5.70;4.60;;;14.10;31.00;;;;;;5149213;27;47307;-20
2022/03/06 08:45:58;;;;;;;4.73;4.07;;;14.10;31.00;;;;;;5148962;27;46863;-14
2022/03/06 08:48:25;;;;;;;4.93;4.43;;;14.10;30.90;;;;;;5149031;27;47245;-20
2022/03/06 08:50:52;;;;;;;5.43;4.35;;;14.10;31.10;;;;;;5148959;27;48131;-20
2022/03/06 08:53:19;;;;;;;5.20;4.20;;;14.10;31.10;;;;;;5148974;27;47128;-20
2022/03/06 08:55:47;;;;;;;4.57;4.00;;;14.10;31.10;;;;;;5148688;27;46811;-20
2022/03/06 08:58:13;;;;;;;6.73;4.13;;;14.10;31.10;;;;;;5149175;27;47296;-21
2022/03/06 09:00:40;;;;;;;5.27;4.53;;;14.10;31.20;;;;;;5148695;27;48084;-14
2022/03/06 09:03:07;;;;;;;6.40;4.37;;;14.10;31.10;;;;;;5148567;27;46906;-20
2022/03/06 09:05:38;;;;;;;4.63;3.90;;;14.10;31.20;;;;;;5148658;27;46991;-21
2022/03/06 09:08:05;;;;;;;5.97;4.30;;;14.10;31.30;;;;;;5149121;27;46876;-20
2022/03/06 09:10:32;;;;;;;4.97;4.10;;;14.10;31.30;;;;;;5148173;27;48376;-20
2022/03/06 09:13:00;;;;;;;4.67;4.03;;;14.10;31.30;;;;;;5148368;27;46983;-21
2022/03/06 09:15:27;;;;;;;5.50;4.20;;;14.10;31.30;;;;;;5146809;27;46859;-14
2022/03/06 09:17:54;;;;;;;6.40;4.33;;;14.10;31.30;;;;;;5147414;27;47085;-14
2022/03/06 09:20:20;;;;;;;6.13;4.40;;;14.10;31.30;;;;;;5146811;27;47088;-14
2022/03/06 09:22:47;;;;;;;4.53;4.10;;;14.10;31.30;;;;;;5146898;27;46952;-15
2022/03/06 09:25:14;;;;;;;5.67;4.00;;;14.10;31.30;;;;;;5147388;27;47144;-14
2022/03/06 09:27:41;;;;;;;4.20;3.73;;;14.10;31.40;;;;;;5144453;27;46970;-21
2022/03/06 09:30:10;;;;;;;5.80;4.40;;;14.10;31.40;;;;;;5145046;27;48744;-20
2022/03/06 09:32:37;;;;;;;6.10;4.33;;;14.10;31.40;;;;;;5147033;27;47067;-20
2022/03/06 09:35:04;;;;;;;5.87;4.47;;;14.10;31.40;;;;;;5146733;27;46945;-21
2022/03/06 09:37:30;;;;;;;5.37;4.10;;;14.10;31.40;;;;;;5146549;27;47231;-21
2022/03/06 09:39:57;;;;;;;5.70;4.40;;;14.10;31.50;;;;;;5146532;27;48761;-21
2022/03/06 09:42:24;;;;;;;8.33;5.00;;;14.10;31.40;;;;;;5146334;27;47461;-21
2022/03/06 09:44:51;;;;;;;6.90;4.60;;;14.10;31.10;;;;;;5141829;27;46916;-14
2022/03/06 09:47:19;;;;;;;5.77;4.40;;;14.10;31.30;;;;;;5146967;27;47158;-15
2022/03/06 09:49:48;;;;;;;4.80;4.10;;;14.20;31.50;;;;;;5146664;27;47207;-14
2022/03/06 09:52:16;;;;;;;5.33;4.23;;;14.20;31.50;;;;;;5150381;27;47164;-15
2022/03/06 09:54:43;;;;;;;5.83;4.77;;;14.20;31.30;;;;;;5154387;27;46983;-15
2022/03/06 09:57:09;;;;;;;6.53;4.93;;;14.20;31.40;;;;;;5168193;27;46958;-14
2022/03/06 09:59:36;;;;;;;5.50;4.53;;;14.20;31.40;;;;;;5146636;27;47056;-14
2022/03/06 10:02:03;;;;;;;5.93;3.97;;;14.20;31.40;;;;;;5148681;27;47021;-13
2022/03/06 10:04:32;;;;;;;6.13;4.20;;;14.30;31.40;;;;;;5145184;27;46989;-14
2022/03/06 10:07:00;;;;;;;5.87;4.17;;;14.30;31.40;;;;;;5145650;27;47151;-14
2022/03/06 10:09:28;;;;;;;6.63;4.13;;;14.30;31.40;;;;;;5145251;27;48785;-14
2022/03/06 10:11:54;;;;;;;5.00;4.50;;;14.30;31.40;;;;;;5127601;27;47169;-20
2022/03/06 10:14:41;;;;;;;4.90;3.97;;;14.30;31.40;;;;;;5125022;27;46955;-21
2022/03/06 10:17:14;;;;;;;6.13;4.20;;;14.30;31.40;;;;;;5125197;27;47002;-21
2022/03/06 10:19:56;;;;;;;4.57;3.80;;;14.30;31.40;;;;;;5141448;27;47059;-20
2022/03/06 10:22:24;;;;;;;4.50;3.60;;;14.40;31.40;;;;;;5146301;27;46900;-20
2022/03/06 10:24:52;;;;;;;4.80;4.27;;;14.40;31.50;;;;;;5145911;27;46845;-13
2022/03/06 10:27:39;;;;;;;4.80;3.97;;;14.40;31.30;;;;;;5146978;27;46853;-20
2022/03/06 10:30:22;;;;;;;5.43;4.20;;;14.50;31.40;;;;;;5146981;27;48904;-20
2022/03/06 10:32:49;;;;;;;5.00;4.20;;;14.50;31.40;;;;;;5147747;27;47005;-20
2022/03/06 10:35:17;;;;;;;6.60;4.00;;;14.50;31.20;;;;;;5147080;27;46969;-20
2022/03/06 10:37:43;;;;;;;7.13;3.97;;;14.50;31.30;;;;;;5154283;27;46733;-20
2022/03/06 10:40:14;;;;;;;4.77;4.27;;;14.60;31.30;;;;;;5167916;27;46921;-20
2022/03/06 10:42:41;;;;;;;5.97;4.20;;;14.60;31.30;;;;;;5140893;27;46918;-20
2022/03/06 10:45:09;;;;;;;5.50;3.73;;;14.60;31.30;;;;;;5161272;27;46911;-20
2022/03/06 10:47:47;;;;;;;4.93;3.97;;;14.70;31.30;;;;;;5148481;27;46977;-13
2022/03/06 10:50:13;;;;;;;5.37;3.77;;;14.70;31.30;;;;;;5145423;27;48116;-19
2022/03/06 10:52:42;;;;;;;4.40;3.70;;;14.80;31.30;;;;;;5151842;27;47103;-19
2022/03/06 10:55:10;;;;;;;4.60;3.90;;;14.80;31.30;;;;;;5152912;27;46942;-19
2022/03/06 10:57:36;;;;;;;5.03;3.93;;;14.90;31.30;;;;;;5144430;27;47098;-20
2022/03/06 11:00:04;;;;;;;10.30;4.27;;;14.90;31.20;;;;;;5161036;27;46959;-21
2022/03/06 11:02:30;;;;;;;5.38;4.40;;;15.00;31.30;;;;;;5133112;27;46759;-20
2022/03/06 11:04:58;;;;;;;5.53;4.10;;;15.00;31.50;;;;;;5145589;27;47089;-20
2022/03/06 11:07:27;;;;;;;6.78;4.35;;;15.10;32.20;;;;;;5143966;27;47073;-21
2022/03/06 11:09:57;;;;;;;5.57;4.53;;;15.30;31.30;;;;;;5140415;27;46949;-20
2022/03/06 11:12:23;;;;;;;5.40;3.85;;;15.40;30.90;;;;;;5144030;27;47887;-20
2022/03/06 11:14:50;;;;;;;6.30;3.92;;;15.50;31.30;;;;;;5144222;27;47026;-21
2022/03/06 11:17:18;;;;;;;7.95;4.35;;;15.60;30.50;;;;;;5158303;27;47055;-20
2022/03/06 11:19:44;;;;;;;4.75;4.25;;;15.80;30.30;;;;;;5146557;27;47042;-13
2022/03/06 11:22:15;;;;;;;4.80;3.92;;;15.90;30.60;;;;;;5143666;27;47553;-14
2022/03/06 11:24:45;;;;;;;6.75;3.60;;;16.00;30.00;;;;;;5148641;27;47030;-13
2022/03/06 11:27:37;;;;;;;4.90;3.90;;;16.20;30.10;;;;;;5143485;27;47065;-13
2022/03/06 11:30:10;;;;;;;5.28;3.95;;;16.30;29.80;;;;;;5130980;27;48081;-14
2022/03/06 11:32:39;;;;;;;5.57;4.00;;;16.40;29.90;;;;;;5143151;27;47172;-13
2022/03/06 11:35:08;;;;;;;5.63;3.97;;;16.40;29.60;;;;;;5166879;27;46870;-12
2022/03/06 11:37:46;;;;;;;4.90;3.92;;;16.50;29.50;;;;;;5146724;27;46928;-13
2022/03/06 11:40:34;;;;;;;4.82;4.07;;;16.60;29.80;;;;;;5169918;27;47931;-14
2022/03/06 11:43:02;;;;;;;8.80;4.35;;;16.60;29.40;;;;;;5169025;27;46792;-12
2022/03/06 11:45:49;;;;;;;8.55;4.22;;;16.60;29.20;;;;;;5169852;27;46832;-13
2022/03/06 11:48:27;;;;;;;4.82;3.75;;;16.70;29.30;;;;;;5149369;27;47036;-13
2022/03/06 11:51:19;;;;;;;4.38;3.90;;;16.70;29.30;;;;;;5127595;27;46996;-20
2022/03/06 11:53:51;;;;;;;5.93;3.92;;;16.70;29.30;;;;;;5128258;27;46988;-20
2022/03/06 11:56:50;;;;;;;6.10;4.05;;;16.70;29.30;;;;;;5127881;27;46893;-19
2022/03/06 11:59:32;;;;;;;7.40;3.95;;;16.70;29.30;;;;;;5124529;27;46876;-14
2022/03/06 12:02:01;;;;;;;4.45;3.92;;;16.70;29.30;;;;;;5136221;27;47845;-12
2022/03/06 12:04:30;;;;;;;9.23;4.22;;;16.70;29.20;;;;;;5148943;27;47120;-14
2022/03/06 12:06:57;;;;;;;7.68;5.20;;;16.80;29.70;;;;;;5149588;27;46857;-13
2022/03/06 12:09:25;;;;;;;5.88;4.15;;;16.90;29.70;;;;;;5149461;27;47250;-13
2022/03/06 12:11:53;;;;;;;11.23;5.15;;;16.90;29.50;;;;;;5149628;27;49070;-14
2022/03/06 12:14:21;;;;;;;71.70;35.28;;;16.90;29.30;;;;;;5149345;27;46909;-17
2022/03/06 12:17:21;;;;;;;33.50;13.15;;;17.00;29.90;;;;;;5149074;27;47019;-13
2022/03/06 12:20:23;;;;;;;14.73;7.65;;;17.10;29.70;;;;;;5149514;27;47188;-13
2022/03/06 12:22:51;;;;;;;101.57;49.45;;;17.10;29.80;;;;;;5156995;27;49084;-13
2022/03/06 12:25:19;;;;;;;47.83;25.70;;;17.20;30.00;;;;;;5160087;27;47161;-13
2022/03/06 12:28:19;;;;;;;30.35;16.83;;;17.30;29.90;;;;;;5170068;27;46962;-13
2022/03/06 12:30:46;;;;;;;36.47;20.08;;;17.40;29.90;;;;;;5170510;27;46870;-13
2022/03/06 12:33:28;;;;;;;32.50;18.35;;;17.50;29.90;;;;;;5150602;27;47100;-14
2022/03/06 12:36:11;;;;;;;30.20;17.45;;;17.60;29.80;;;;;;5135918;27;47160;-13
2022/03/06 12:38:38;;;;;;;77.95;44.47;;;17.70;29.70;;;;;;5148704;27;46766;-13
2022/03/06 12:41:06;;;;;;;37.15;22.38;;;17.80;29.80;;;;;;5148941;27;46925;-14
2022/03/06 12:43:33;;;;;;;118.75;64.00;;;17.80;29.10;;;;;;5148675;27;47969;-13
2022/03/06 12:45:59;;;;;;;77.95;45.60;;;17.90;29.20;;;;;;5148519;27;46992;-13
2022/03/06 12:48:28;;;;;;;41.90;25.63;;;17.90;29.30;;;;;;5149018;27;46803;-14
2022/03/06 12:50:55;;;;;;;47.38;28.77;;;18.00;29.20;;;;;;5149071;27;46983;-14